Time;durP1;ratioP1;P1;durP2;ratioP2;P2;SDS_P1;SDS_P2;PMS_P1;PMS_P2;Temp;Humidity;BMP_temperature;BMP_pressure;BME280_temperature;BME280_humidity;BME280_pressure;Samples;Min_cycle;Max_cycle;Signal;HPM_P1;HPM_P2
2021/10/01 19:53:33;;;;;;;;;;;;;;;;;;5115889;28;19920;-86
2021/10/01 19:56:00;;;;;;;;;;;;;;;;;;5115811;27;19916;-88
2021/10/01 19:58:27;;;;;;;;;;;;;;;;;;5114241;28;19916;-88
2021/10/01 20:00:59;;;;;;;;;;;;;;;;;;5115438;28;19919;-90
2021/10/01 20:03:25;;;;;;;;;;;;;;;;;;5115898;28;20314;-89
2021/10/01 20:05:50;;;;;;;;;;;;;;;;;;5114050;28;19916;-86
2021/10/01 20:08:16;;;;;;;;;;;;;;;;;;5115494;28;20013;-88
2021/10/01 20:10:41;;;;;;;;;;;;;;;;;;5116465;28;20006;-86
2021/10/01 20:13:07;;;;;;;;;;;;;;;;;;5116004;27;19916;-87
2021/10/01 20:15:33;;;;;;;;;;;;;;;;;;5096917;28;20294;-87
2021/10/01 20:18:00;;;;;;;;;;;;;;;;;;5115426;28;19926;-88
2021/10/01 20:20:33;;;;;;;;;;;;;;;;;;5115326;28;20367;-88
2021/10/01 20:23:23;;;;;;;;;;;;;;;;;;5115378;28;19965;-87
2021/10/01 20:25:58;;;;;;;;;;;;;;;;;;5115274;28;20022;-87
2021/10/01 20:47:42;;;;;;;;;;;;;;;;;;5092891;28;20057;-87
2021/10/01 20:50:09;;;;;;;;;;;;;;;;;;5092277;28;20011;-88
2021/10/01 20:52:35;;;;;;;;;;;;;;;;;;5092316;28;19964;-87
2021/10/01 20:55:01;;;;;;;;;;;;;;;;;;5092169;28;19947;-88
2021/10/01 21:00:22;;;;;;;;;;;;;;;;;;5092125;28;20371;-87
2021/10/01 21:02:47;;;;;;;;;;;;;;;;;;5091770;28;19916;-87
2021/10/01 21:05:37;;;;;;;;;;;;;;;;;;5092487;28;19924;-85
2021/10/01 21:38:30;;;;;;;;;;;;;;;;;;5118614;28;20014;-87
2021/10/01 21:49:04;;;;;;;;;;;;;;;;;;5118085;28;20018;-89
2021/10/01 21:51:33;;;;;;;;;;;;;;;;;;5118054;28;19916;-87
2021/10/01 21:53:59;;;;;;;;;;;;;;;;;;5118251;28;20002;-87
2021/10/01 21:56:25;;;;;;;;;;;;;;;;;;5118105;28;19962;-87
2021/10/01 21:58:57;;;;;;;;;;;;;;;;;;5118172;27;20279;-88
2021/10/01 22:01:22;;;;;;;;;;;;;;;;;;5118117;28;19916;-89
2021/10/01 22:09:09;;;;;;;;;;;;;;;;;;5117895;28;19919;-88
2021/10/01 22:22:16;;;;;;;;;;;;;;;;;;5117671;28;19964;-89
2021/10/01 22:24:41;;;;;;;;;;;;;;;;;;5117321;28;20337;-88
2021/10/01 22:27:08;;;;;;;;;;;;;;;;;;5117498;28;19922;-89
2021/10/01 22:29:36;;;;;;;;;;;;;;;;;;5117403;28;19927;-88
2021/10/01 22:32:01;;;;;;;;;;;;;;;;;;5117412;28;19939;-89
2021/10/01 22:34:27;;;;;;;;;;;;;;;;;;5117519;28;20371;-90
2021/10/01 22:36:53;;;;;;;;;;;;;;;;;;5116126;28;19958;-89
2021/10/01 22:39:21;;;;;;;;;;;;;;;;;;5117082;28;19951;-89
2021/10/01 22:41:48;;;;;;;;;;;;;;;;;;5117401;28;19961;-90
2021/10/01 22:44:14;;;;;;;;;;;;;;;;;;5117307;28;19947;-89
2021/10/01 22:46:39;;;;;;;;;;;;;;;;;;5117400;28;19970;-91
2021/10/01 22:49:06;;;;;;;;;;;;;;;;;;5117093;28;19943;-89
2021/10/01 22:51:32;;;;;;;;;;;;;;;;;;5117680;28;20401;-90
2021/10/01 22:54:01;;;;;;;;;;;;;;;;;;5118756;28;19915;-89
2021/10/01 22:56:29;;;;;;;;;;;;;;;;;;5117465;28;19992;-89
2021/10/01 22:58:54;;;;;;;;;;;;;;;;;;5136719;28;19904;-81
2021/10/01 23:01:21;;;;;;;;;;;;;;;;;;5140539;27;19953;-79
2021/10/01 23:03:51;;;;;;;;;;;;;;;;;;5129460;28;19972;-89
2021/10/01 23:06:20;;;;;;;;;;;;;;;;;;5120486;28;20018;-89
2021/10/01 23:08:45;;;;;;;;;;;;;;;;;;5118150;28;19968;-89
2021/10/01 23:11:15;;;;;;;;;;;;;;;;;;5118179;28;20394;-89
2021/10/01 23:16:27;;;;;;;;;;;;;;;;;;5116924;28;19911;-89
2021/10/01 23:49:07;;;;;;;;;;;;;;;;;;5116132;28;19939;-88
